Time;durP1;ratioP1;P1;durP2;ratioP2;P2;SDS_P1;SDS_P2;PMS_P1;PMS_P2;Temp;Humidity;BMP_temperature;BMP_pressure;BME280_temperature;BME280_humidity;BME280_pressure;Samples;Min_cycle;Max_cycle;Signal;HPM_P1;HPM_P2
2021/12/14 00:00:47;;;;;;;10.57;8.88;;;;;;;7.20;85.71;102605.69;4932368;29;20056;-90
2021/12/14 00:03:15;;;;;;;11.00;8.95;;;;;;;7.21;86.01;102607.44;4931156;29;20035;-92
2021/12/14 00:05:42;;;;;;;10.07;8.32;;;;;;;7.20;85.98;102605.69;4932955;29;20063;-91
2021/12/14 00:08:12;;;;;;;10.27;8.63;;;;;;;7.18;86.17;102605.69;4932806;29;20083;-91
2021/12/14 00:13:22;;;;;;;10.52;8.52;;;;;;;7.18;86.11;102600.50;4932764;29;20408;-91
2021/12/14 00:15:50;;;;;;;11.85;8.98;;;;;;;7.18;86.12;102595.34;4933336;29;20396;-90
2021/12/14 00:18:16;;;;;;;9.68;8.65;;;;;;;7.12;86.23;102583.16;4930549;29;20034;-91
2021/12/14 00:20:50;;;;;;;11.60;9.27;;;;;;;7.16;86.29;102585.81;4932725;29;20118;-91
2021/12/14 00:25:52;;;;;;;10.35;8.23;;;;;;;7.19;86.35;102612.63;4931446;29;20032;-91
2021/12/14 00:28:24;;;;;;;13.55;8.82;;;;;;;7.19;86.30;102610.03;4932945;29;20034;-91
2021/12/14 00:30:51;;;;;;;10.27;8.07;;;;;;;7.18;86.43;102605.69;4931863;28;20031;-91
2021/12/14 00:33:19;;;;;;;9.10;7.60;;;;;;;7.17;86.40;102600.50;4931805;29;20031;-90
2021/12/14 00:35:47;;;;;;;9.18;8.13;;;;;;;7.19;86.55;102614.31;4932316;28;20106;-91
2021/12/14 00:38:14;;;;;;;10.30;8.50;;;;;;;7.20;86.31;102614.34;4930341;29;20028;-91
2021/12/14 00:40:49;;;;;;;9.88;8.30;;;;;;;7.18;86.61;102608.28;4933559;29;20210;-91
2021/12/14 00:43:15;;;;;;;11.02;8.32;;;;;;;7.18;86.46;102613.47;4944563;28;20375;-90
2021/12/14 00:45:43;;;;;;;12.05;8.60;;;;;;;7.13;86.65;102610.78;4931204;29;20098;-90
2021/12/14 00:48:10;;;;;;;9.60;8.60;;;;;;;7.17;86.70;102622.06;4930575;29;20059;-90
2021/12/14 00:50:37;;;;;;;10.68;8.65;;;;;;;7.17;86.60;102622.06;4932716;29;20038;-91
2021/12/14 00:53:03;;;;;;;11.23;8.57;;;;;;;7.13;86.70;102618.56;4930357;29;20040;-91
2021/12/14 00:55:36;;;;;;;10.88;9.38;;;;;;;7.12;86.81;102629.75;4929556;29;20107;-91
2021/12/14 00:58:03;;;;;;;10.27;9.18;;;;;;;7.14;86.93;102638.44;4930019;29;20038;-91
2021/12/14 01:00:33;;;;;;;12.40;9.35;;;;;;;7.12;86.88;102634.03;4967376;28;20090;-91
2021/12/14 01:02:59;;;;;;;10.65;8.88;;;;;;;7.17;87.07;102644.50;4970472;28;20085;-90
2021/12/14 01:05:31;;;;;;;12.63;9.30;;;;;;;7.16;87.17;102645.34;4969606;28;20098;-92
2021/12/14 01:07:58;;;;;;;13.68;9.95;;;;;;;7.11;87.15;102642.66;4970595;28;20082;-91
2021/12/14 01:10:39;;;;;;;13.07;9.82;;;;;;;7.13;87.39;102641.84;4968435;28;20031;-90
2021/12/14 01:13:08;;;;;;;12.43;10.15;;;;;;;7.16;87.24;102635.00;4952116;28;20062;-91
2021/12/14 01:15:58;;;;;;;11.50;9.90;;;;;;;7.13;86.79;102621.16;4952615;28;20109;-90
2021/12/14 01:18:45;;;;;;;13.63;10.27;;;;;;;7.14;87.20;102629.78;4955881;28;20034;-91
2021/12/14 01:21:43;;;;;;;12.13;10.07;;;;;;;7.17;87.26;102636.75;4954281;28;20035;-91
2021/12/14 01:24:36;;;;;;;13.10;10.23;;;;;;;7.17;87.06;102628.97;4954455;28;20038;-90
2021/12/14 01:27:12;;;;;;;15.90;10.15;;;;;;;7.14;86.85;102633.25;4969298;28;20038;-92
2021/12/14 01:29:39;;;;;;;12.32;10.57;;;;;;;7.17;87.22;102641.91;4954607;28;20324;-92
2021/12/14 01:32:06;;;;;;;12.90;10.50;;;;;;;7.09;87.34;102626.22;4950404;28;20492;-91
2021/12/14 01:34:32;;;;;;;12.90;10.23;;;;;;;7.11;87.01;102620.25;4971580;28;20094;-90
2021/12/14 01:37:07;;;;;;;12.02;10.25;;;;;;;7.10;87.29;102620.19;4968993;28;20027;-91
2021/12/14 01:42:09;;;;;;;13.88;10.77;;;;;;;7.10;87.20;102608.16;4967184;28;20403;-90
2021/12/14 01:44:44;;;;;;;12.82;10.95;;;;;;;7.09;87.66;102609.00;4968099;28;20042;-91
2021/12/14 01:47:40;;;;;;;14.48;11.18;;;;;;;7.10;87.66;102604.69;4954273;28;20037;-90
2021/12/14 01:50:12;;;;;;;13.27;11.25;;;;;;;7.02;87.51;102601.94;4952847;28;20057;-91
2021/12/14 01:52:37;;;;;;;14.68;11.07;;;;;;;7.04;87.26;102594.25;4950306;28;20035;-91
2021/12/14 01:55:13;;;;;;;12.23;10.90;;;;;;;7.05;87.66;102598.56;4969802;28;20514;-90
2021/12/14 01:57:39;;;;;;;13.07;11.07;;;;;;;7.08;87.58;102601.22;4953923;28;20019;-91
2021/12/14 02:00:17;;;;;;;13.30;11.20;;;;;;;7.06;87.53;102593.41;4968973;28;20393;-90
2021/12/14 02:02:45;;;;;;;14.00;10.80;;;;;;;7.03;87.53;102587.31;4965246;28;20085;-90
2021/12/14 02:05:26;;;;;;;12.45;11.15;;;;;;;7.05;87.67;102591.66;4951532;28;20062;-91
2021/12/14 02:07:53;;;;;;;13.05;10.57;;;;;;;7.02;87.20;102583.84;4966623;28;20026;-90
2021/12/14 02:10:26;;;;;;;13.40;11.15;;;;;;;7.02;87.34;102586.44;4949804;28;20491;-90
2021/12/14 02:12:52;;;;;;;12.57;10.75;;;;;;;7.01;87.48;102576.91;4968671;28;20269;-90
2021/12/14 02:15:23;;;;;;;12.85;10.68;;;;;;;6.96;87.16;102568.22;4969115;28;20126;-91
2021/12/14 02:17:50;;;;;;;14.23;11.60;;;;;;;7.02;87.33;102576.06;4953395;28;20058;-90
2021/12/14 02:20:20;;;;;;;13.15;11.07;;;;;;;7.01;87.59;102569.16;4969298;28;20093;-90
2021/12/14 02:22:46;;;;;;;13.48;11.38;;;;;;;6.97;87.27;102569.97;4970180;28;20034;-90
2021/12/14 02:25:12;;;;;;;14.98;12.00;;;;;;;7.00;87.44;102582.97;4965372;28;20096;-91
2021/12/14 02:27:41;;;;;;;13.80;11.30;;;;;;;6.97;87.57;102582.91;4950180;28;20489;-90
2021/12/14 02:30:10;;;;;;;13.00;11.38;;;;;;;6.99;87.59;102587.25;4967774;28;20030;-90
2021/12/14 02:32:36;;;;;;;15.40;10.82;;;;;;;6.96;87.57;102582.03;4950431;28;20034;-91
2021/12/14 02:35:05;;;;;;;14.40;11.07;;;;;;;6.95;87.52;102574.25;4950970;28;20077;-91
2021/12/14 02:37:52;;;;;;;13.70;10.50;;;;;;;7.01;87.38;102591.59;4953340;28;20447;-91
2021/12/14 02:40:32;;;;;;;14.45;10.27;;;;;;;6.98;87.22;102585.50;4969845;28;20075;-91
2021/12/14 02:43:01;;;;;;;12.57;10.00;;;;;;;6.99;87.15;102591.56;4966076;28;20019;-91
2021/12/14 02:45:27;;;;;;;13.75;9.88;;;;;;;7.01;87.10;102604.53;4957551;28;20057;-91
2021/12/14 02:47:53;;;;;;;12.40;9.63;;;;;;;7.01;87.05;102592.44;4955732;28;20059;-90
2021/12/14 02:50:21;;;;;;;10.88;8.90;;;;;;;7.02;86.79;102590.75;4954177;28;20085;-90
2021/12/14 02:52:47;;;;;;;13.02;9.80;;;;;;;7.02;86.85;102585.56;4971307;28;20059;-90
2021/12/14 02:55:17;;;;;;;11.23;8.43;;;;;;;7.03;86.36;102585.59;4955432;28;20054;-90
2021/12/14 02:57:47;;;;;;;11.20;8.32;;;;;;;7.03;85.98;102582.13;4970984;28;20050;-91
2021/12/14 03:00:24;;;;;;;10.90;7.65;;;;;;;7.01;86.35;102569.16;4971637;28;20051;-90
2021/12/14 03:02:50;;;;;;;10.48;7.82;;;;;;;7.01;86.14;102568.28;4971742;28;20475;-91
2021/12/14 03:05:21;;;;;;;10.80;7.65;;;;;;;6.98;86.41;102569.13;4972738;28;20054;-91
2021/12/14 03:07:51;;;;;;;10.70;7.80;;;;;;;6.95;86.05;102574.25;4971458;28;20483;-90
2021/12/14 03:10:50;;;;;;;9.43;7.20;;;;;;;6.94;85.91;102557.84;4973883;28;20046;-91
2021/12/14 03:13:17;;;;;;;10.85;7.70;;;;;;;6.95;85.88;102556.13;4957878;28;20038;-91
2021/12/14 03:15:48;;;;;;;9.10;7.10;;;;;;;6.93;85.97;102555.22;4973753;28;20115;-91
2021/12/14 03:18:18;;;;;;;10.60;7.20;;;;;;;6.96;85.99;102550.13;4970519;28;20475;-91
2021/12/14 03:20:51;;;;;;;9.30;6.78;;;;;;;6.90;85.52;102545.72;4972207;28;20050;-91
2021/12/14 03:23:24;;;;;;;9.02;7.13;;;;;;;6.88;85.99;102541.34;4953144;28;20523;-91
2021/12/14 03:25:52;;;;;;;8.70;7.00;;;;;;;6.89;85.51;102543.97;4955280;28;20030;-91
2021/12/14 03:28:21;;;;;;;10.52;7.55;;;;;;;6.86;85.70;102543.03;4972928;28;20464;-91
2021/12/14 03:30:46;;;;;;;9.18;6.90;;;;;;;6.89;85.74;102543.09;4971360;28;20026;-91
2021/12/14 03:33:18;;;;;;;10.77;7.57;;;;;;;6.82;85.82;102535.22;4955263;28;20031;-90
2021/12/14 03:35:59;;;;;;;10.38;7.07;;;;;;;6.84;85.83;102530.94;4952551;28;20030;-90
2021/12/14 03:38:28;;;;;;;9.50;7.28;;;;;;;6.83;85.74;102538.69;4969975;28;20023;-90
2021/12/14 03:40:59;;;;;;;10.63;7.88;;;;;;;6.82;85.69;102537.81;4953690;28;20038;-91
2021/12/14 03:43:25;;;;;;;11.00;7.45;;;;;;;6.77;85.42;102516.16;4954461;28;20086;-90
2021/12/14 03:45:52;;;;;;;9.02;7.45;;;;;;;6.76;85.92;102523.88;4971626;28;20089;-91
2021/12/14 03:48:20;;;;;;;10.57;7.70;;;;;;;6.76;85.93;102535.13;4953847;28;20032;-91
2021/12/14 03:50:45;;;;;;;10.88;7.43;;;;;;;6.76;85.55;102537.69;4968762;28;20135;-90
2021/12/14 03:53:12;;;;;;;9.18;6.85;;;;;;;6.82;85.50;102566.28;4970608;28;20019;-91
2021/12/14 03:55:42;;;;;;;10.63;7.82;;;;;;;6.80;85.90;102565.38;4970830;28;20484;-91
2021/12/14 03:58:14;;;;;;;12.90;7.93;;;;;;;6.77;85.85;102573.06;4969260;28;20022;-90
2021/12/14 04:00:44;;;;;;;10.07;6.70;;;;;;;6.81;85.69;102581.75;4970232;28;20035;-91
2021/12/14 04:03:15;;;;;;;10.55;7.25;;;;;;;6.81;85.57;102590.41;4970120;28;20023;-91
2021/12/14 04:05:41;;;;;;;10.40;7.13;;;;;;;6.83;85.61;102591.28;4953469;28;20054;-90
2021/12/14 04:08:07;;;;;;;10.77;7.32;;;;;;;6.80;85.57;102593.81;4969606;28;20507;-90
2021/12/14 04:10:35;;;;;;;10.18;7.20;;;;;;;6.80;85.55;102609.34;4971067;28;20031;-90
2021/12/14 04:13:01;;;;;;;19.65;9.60;;;;;;;6.82;85.74;102605.09;4969731;28;20081;-90
2021/12/14 04:15:28;;;;;;;15.55;9.90;;;;;;;6.82;85.55;102605.09;4970533;28;20019;-91
2021/12/14 04:17:54;;;;;;;10.55;7.97;;;;;;;6.81;85.60;102590.41;4969343;28;20015;-91
2021/12/14 04:20:32;;;;;;;9.65;7.93;;;;;;;6.84;85.42;102595.59;4968017;28;20391;-90
2021/12/14 04:22:57;;;;;;;11.15;8.15;;;;;;;6.82;85.60;102584.38;4969247;28;20034;-90
2021/12/14 04:25:28;;;;;;;11.57;8.95;;;;;;;6.82;85.66;102584.38;4970228;28;20475;-91
2021/12/14 04:27:55;;;;;;;11.05;8.80;;;;;;;6.77;85.40;102582.53;4951944;28;20062;-91
2021/12/14 04:30:24;;;;;;;11.95;9.88;;;;;;;6.82;85.64;102589.56;4971073;28;20026;-91
2021/12/14 04:32:54;;;;;;;11.48;9.00;;;;;;;6.76;85.91;102575.63;4969234;28;20042;-90
2021/12/14 04:35:20;;;;;;;13.18;10.25;;;;;;;6.75;85.70;102572.16;4955892;28;20026;-92
2021/12/14 04:37:53;;;;;;;12.48;9.85;;;;;;;6.77;85.59;102578.25;4954561;28;20368;-91
2021/12/14 04:54:08;;;;;;;15.88;11.15;;;;;;;6.68;85.76;102554.78;4971226;28;20050;-91
2021/12/14 04:56:38;;;;;;;14.20;10.73;;;;;;;6.72;86.14;102566.09;4954827;28;20384;-91
2021/12/14 04:59:14;;;;;;;15.55;11.70;;;;;;;6.67;86.28;102553.03;4971093;28;20047;-91
2021/12/14 05:01:44;;;;;;;15.68;11.65;;;;;;;6.68;86.22;102560.84;4969679;28;20031;-92
2021/12/14 05:04:17;;;;;;;16.50;12.10;;;;;;;6.68;86.06;102560.84;4970078;28;20380;-91
2021/12/14 05:06:49;;;;;;;15.10;11.77;;;;;;;6.69;86.25;102556.53;4970259;28;20113;-91
2021/12/14 05:09:30;;;;;;;;;;;;;;;6.81;86.39;102561.94;4970273;28;20526;-90
2021/12/14 05:12:01;;;;;;;16.70;11.98;;;;;;;6.71;85.97;102560.03;4969305;28;19957;-91
2021/12/14 05:14:29;;;;;;;17.35;12.30;;;;;;;6.70;86.11;102555.69;4953247;28;20033;-91
2021/12/14 05:16:57;;;;;;;16.90;12.25;;;;;;;6.71;86.27;102565.19;4970600;28;20403;-91
2021/12/14 05:19:25;;;;;;;17.85;13.25;;;;;;;6.65;86.06;102542.69;4952649;28;20031;-90
2021/12/14 05:21:53;;;;;;;17.02;12.50;;;;;;;6.67;86.25;102553.03;4967990;28;20507;-90
2021/12/14 05:24:23;;;;;;;17.80;13.00;;;;;;;6.64;86.25;102550.41;4968808;28;20030;-91
2021/12/14 05:26:55;;;;;;;17.15;12.43;;;;;;;6.68;86.51;102554.78;4969127;28;20042;-90
2021/12/14 05:29:26;;;;;;;18.38;12.68;;;;;;;6.66;86.37;102556.50;4968688;28;20038;-90
2021/12/14 05:31:52;;;;;;;17.73;12.82;;;;;;;6.68;86.23;102554.78;4967567;28;20027;-90
2021/12/14 05:34:21;;;;;;;20.70;14.82;;;;;;;6.70;86.50;102560.00;4969061;28;20080;-90
2021/12/14 05:36:46;;;;;;;19.48;13.80;;;;;;;6.65;86.38;102539.25;4952199;28;20125;-91
2021/12/14 05:44:44;;;;;;;22.42;14.48;;;;;;;6.69;86.78;102553.94;4970652;28;20069;-90
2021/12/14 05:47:13;;;;;;;20.00;13.20;;;;;;;6.64;86.40;102548.69;4953002;28;20026;-90
2021/12/14 05:49:42;;;;;;;19.30;14.13;;;;;;;6.63;86.51;102551.25;4969812;28;20039;-90
2021/12/14 05:52:26;;;;;;;20.85;13.80;;;;;;;6.66;86.67;102557.34;4968021;28;20130;-90
2021/12/14 05:54:54;;;;;;;20.27;13.80;;;;;;;6.70;86.80;102562.59;4966966;28;20030;-91
2021/12/14 05:57:23;;;;;;;19.42;13.77;;;;;;;6.64;86.71;102560.78;4953270;28;20023;-91
2021/12/14 05:59:50;;;;;;;20.00;14.57;;;;;;;6.70;86.29;102568.63;4967184;28;20500;-90
2021/12/14 06:02:16;;;;;;;20.80;15.05;;;;;;;6.61;86.39;102558.13;4967520;28;20038;-89
2021/12/14 06:04:46;;;;;;;21.63;15.63;;;;;;;6.67;86.60;102573.72;4966699;28;20188;-91
2021/12/14 06:07:11;;;;;;;21.17;15.63;;;;;;;6.63;86.36;102562.47;4963768;28;20415;-91
2021/12/14 06:09:40;;;;;;;22.90;15.75;;;;;;;6.65;86.45;102578.03;4951325;28;20050;-91
2021/12/14 06:12:10;;;;;;;21.88;15.55;;;;;;;6.65;86.40;102578.03;4950316;28;20391;-90
2021/12/14 06:14:50;;;;;;;26.08;16.50;;;;;;;6.64;86.38;102578.88;4966371;28;20100;-90
2021/12/14 06:17:23;;;;;;;22.83;16.55;;;;;;;6.63;86.35;102577.97;4950728;28;20030;-90
2021/12/14 06:19:52;;;;;;;22.60;16.40;;;;;;;6.65;86.39;102580.63;4968601;28;20034;-91
2021/12/14 06:22:20;;;;;;;22.25;16.15;;;;;;;6.58;86.70;102574.44;4953887;28;20443;-91
2021/12/14 06:24:49;;;;;;;24.10;16.90;;;;;;;6.55;86.50;102581.28;4967039;28;20208;-91
2021/12/14 06:27:18;;;;;;;23.92;16.60;;;;;;;6.55;86.73;102579.56;4951215;28;20126;-91
2021/12/14 06:29:48;;;;;;;25.27;17.45;;;;;;;6.60;86.80;102587.41;4967953;28;20077;-91
2021/12/14 06:32:26;;;;;;;24.10;17.20;;;;;;;6.58;86.63;102583.91;4970070;28;20126;-91
2021/12/14 06:35:06;;;;;;;25.08;17.08;;;;;;;6.55;86.83;102581.28;4968070;28;20070;-91
2021/12/14 06:40:16;;;;;;;25.75;16.65;;;;;;;6.62;86.73;102593.47;4968462;28;20045;-91
2021/12/14 06:42:47;;;;;;;24.88;17.63;;;;;;;6.58;86.99;102592.53;4966335;28;20039;-91
2021/12/14 06:45:17;;;;;;;28.08;18.65;;;;;;;6.55;86.40;102584.75;4969195;28;20027;-91
2021/12/14 06:47:44;;;;;;;25.40;18.20;;;;;;;6.57;86.81;102589.94;4966881;28;20045;-90
2021/12/14 06:50:17;;;;;;;25.52;18.13;;;;;;;6.52;86.75;102585.53;4967719;28;20028;-90
2021/12/14 06:52:42;;;;;;;26.88;19.20;;;;;;;6.53;86.88;102600.22;4966695;28;20489;-91
2021/12/14 06:55:20;;;;;;;26.25;18.45;;;;;;;6.61;86.90;102617.59;4970218;28;20069;-90
2021/12/14 06:57:46;;;;;;;25.65;18.05;;;;;;;6.54;86.66;102606.25;4967645;28;20055;-91
2021/12/14 07:00:11;;;;;;;27.60;18.95;;;;;;;6.55;86.72;102610.59;4968290;28;20082;-91
2021/12/14 07:02:37;;;;;;;28.88;18.85;;;;;;;6.53;86.52;102597.63;4967528;28;20471;-91
2021/12/14 07:05:04;;;;;;;30.13;19.42;;;;;;;6.57;86.84;102620.97;4965028;28;20125;-90
2021/12/14 07:07:30;;;;;;;28.02;19.35;;;;;;;6.62;86.40;102627.09;4967118;28;20035;-90
2021/12/14 07:09:58;;;;;;;27.48;19.42;;;;;;;6.62;86.60;102627.09;4969475;28;20038;-90
2021/12/14 07:12:31;;;;;;;28.95;19.42;;;;;;;6.61;86.80;102627.94;4951344;28;20030;-90
2021/12/14 07:14:58;;;;;;;26.98;19.02;;;;;;;6.62;86.46;102632.28;4951358;28;20491;-91
2021/12/14 07:17:28;;;;;;;28.13;20.13;;;;;;;6.64;86.63;102638.34;4967552;28;20039;-90
2021/12/14 07:19:55;;;;;;;27.70;19.73;;;;;;;6.65;86.71;102637.50;4965159;28;20160;-90
2021/12/14 07:22:36;;;;;;;28.52;20.65;;;;;;;6.65;86.74;102645.28;4968741;28;20034;-90
2021/12/14 07:25:12;;;;;;;30.38;20.55;;;;;;;6.68;86.35;102653.06;4967004;28;20022;-90
2021/12/14 07:27:40;;;;;;;30.27;20.02;;;;;;;6.67;86.52;102654.78;4966235;28;20031;-90
2021/12/14 07:30:14;;;;;;;30.70;21.23;;;;;;;6.66;86.33;102645.28;4945480;28;20392;-90
2021/12/14 07:32:45;;;;;;;28.38;20.40;;;;;;;6.67;86.44;102654.78;4949873;28;20714;-89
2021/12/14 07:35:32;;;;;;;28.25;19.45;;;;;;;6.68;86.73;102660.81;4967378;28;20145;-89
2021/12/14 07:38:03;;;;;;;30.42;20.50;;;;;;;6.62;86.62;102658.13;4951393;28;20194;-89
2021/12/14 07:40:37;;;;;;;31.85;20.50;;;;;;;6.65;86.37;102659.06;4968365;28;20030;-88
2021/12/14 07:43:25;;;;;;;30.45;20.67;;;;;;;6.70;86.49;102666.91;4968696;28;20048;-89
2021/12/14 07:45:56;;;;;;;35.28;22.08;;;;;;;6.67;86.55;102666.84;4968455;28;20038;-89
2021/12/14 07:48:39;;;;;;;32.58;20.75;;;;;;;6.72;86.63;102669.53;4968774;28;20042;-88
2021/12/14 07:51:05;;;;;;;31.05;20.92;;;;;;;6.70;86.63;102676.41;4967067;28;20495;-87
2021/12/14 07:53:43;;;;;;;30.33;20.48;;;;;;;6.70;86.29;102682.44;4950649;28;20030;-89
2021/12/14 07:56:23;;;;;;;31.30;20.77;;;;;;;6.71;86.49;102679.00;4967519;28;20571;-88
2021/12/14 07:58:48;;;;;;;30.55;20.50;;;;;;;6.71;86.42;102684.16;4966922;28;20113;-89
2021/12/14 08:01:15;;;;;;;29.88;20.60;;;;;;;6.66;86.37;102681.50;4967679;28;20680;-90
2021/12/14 08:03:40;;;;;;;32.03;20.73;;;;;;;6.65;86.55;102678.91;4967215;28;20697;-89
2021/12/14 08:06:09;;;;;;;30.73;21.08;;;;;;;6.67;86.65;102688.41;4967953;28;20034;-89
2021/12/14 08:08:45;;;;;;;29.65;20.60;;;;;;;6.68;86.56;102689.28;4967225;28;20035;-89
2021/12/14 08:14:10;;;;;;;31.83;21.55;;;;;;;6.70;86.77;102695.34;4967099;28;20042;-89
2021/12/14 08:16:53;;;;;;;31.30;21.38;;;;;;;6.70;86.83;102690.19;4966864;28;20030;-89
2021/12/14 08:19:40;;;;;;;30.77;20.63;;;;;;;6.74;86.71;102686.81;4949481;28;20383;-87
2021/12/14 08:22:13;;;;;;;32.65;21.48;;;;;;;6.71;86.55;102685.91;4969626;28;20035;-86
2021/12/14 08:24:46;;;;;;;32.72;21.35;;;;;;;6.71;86.95;102691.94;4969369;28;20056;-87
2021/12/14 08:27:12;;;;;;;30.52;20.75;;;;;;;6.69;86.75;102680.69;4971131;28;20149;-88
2021/12/14 08:29:37;;;;;;;33.00;22.13;;;;;;;6.69;86.92;102675.50;4973435;28;20042;-89
2021/12/14 08:32:12;;;;;;;30.17;21.23;;;;;;;6.72;86.68;102690.22;4971878;28;20034;-86
2021/12/14 08:34:42;;;;;;;37.35;22.27;;;;;;;6.74;86.60;102694.59;4970732;28;20109;-87
2021/12/14 08:37:14;;;;;;;33.03;22.58;;;;;;;6.73;86.56;102695.44;4970218;28;20034;-87
2021/12/14 08:40:00;;;;;;;;;;;;;;;6.89;86.75;102698.31;4972044;28;20027;-86
2021/12/14 08:42:41;;;;;;;33.53;21.17;;;;;;;6.78;86.66;102701.56;4969788;28;19925;-86
2021/12/14 08:45:25;;;;;;;34.30;21.83;;;;;;;6.76;86.33;102705.84;4952196;28;20038;-86
2021/12/14 08:48:02;;;;;;;34.45;22.42;;;;;;;6.78;86.47;102705.84;4970772;28;20472;-88
2021/12/14 08:50:29;;;;;;;34.25;21.67;;;;;;;6.77;86.58;102694.66;4952049;28;20533;-86
2021/12/14 08:52:54;;;;;;;34.78;22.33;;;;;;;6.79;86.60;102700.72;4970220;28;20057;-86
2021/12/14 08:55:21;;;;;;;33.47;22.67;;;;;;;6.80;86.63;102706.75;4968314;28;20388;-86
2021/12/14 08:57:47;;;;;;;36.08;22.52;;;;;;;6.81;86.67;102704.22;4970022;28;20025;-85
2021/12/14 09:00:30;;;;;;;32.42;22.42;;;;;;;6.83;86.64;102706.84;4968897;28;20050;-84
2021/12/14 09:03:00;;;;;;;35.88;23.33;;;;;;;6.83;86.71;102705.09;4969169;28;20494;-85
2021/12/14 09:05:30;;;;;;;36.83;23.60;;;;;;;6.84;86.48;102711.16;4950222;28;20097;-83
2021/12/14 09:07:56;;;;;;;36.80;23.75;;;;;;;6.83;86.52;102701.66;4969168;28;20069;-88
2021/12/14 09:10:24;;;;;;;36.05;24.42;;;;;;;6.88;86.73;102706.91;4968670;28;20118;-88
2021/12/14 09:12:55;;;;;;;39.30;24.75;;;;;;;6.89;86.39;102711.25;4968153;28;20117;-86
2021/12/14 09:15:29;;;;;;;49.55;25.15;;;;;;;6.91;86.27;102704.41;4967689;28;20041;-88
2021/12/14 09:17:55;;;;;;;42.72;25.55;;;;;;;6.91;86.58;102697.53;4950177;28;20353;-86
2021/12/14 09:20:50;;;;;;;52.95;26.15;;;;;;;6.95;86.49;102713.97;4949962;28;20034;-88
2021/12/14 09:23:25;;;;;;;48.92;25.73;;;;;;;6.99;86.66;102711.47;4960359;28;20515;-90
2021/12/14 09:25:52;;;;;;;43.75;25.08;;;;;;;7.03;86.55;102714.13;4963534;28;20615;-88
2021/12/14 09:28:19;;;;;;;39.88;26.13;;;;;;;7.04;86.26;102706.38;4967219;28;20468;-86
2021/12/14 09:30:49;;;;;;;37.38;25.60;;;;;;;7.05;86.20;102709.84;4968298;28;20027;-91
2021/12/14 09:33:16;;;;;;;41.05;26.33;;;;;;;7.08;86.26;102709.91;4948360;28;20508;-86
2021/12/14 09:35:43;;;;;;;40.72;26.30;;;;;;;7.11;86.38;102705.66;4949573;28;20019;-88
2021/12/14 09:38:12;;;;;;;49.38;26.70;;;;;;;7.12;86.13;102704.81;4967169;28;20472;-88
2021/12/14 09:40:46;;;;;;;39.90;27.80;;;;;;;7.17;86.36;102706.63;4967336;28;20105;-92
2021/12/14 09:43:12;;;;;;;42.30;26.60;;;;;;;7.15;85.88;102701.41;4966953;28;20488;-90
2021/12/14 09:45:44;;;;;;;39.85;25.67;;;;;;;7.21;85.88;102716.16;4948311;28;20858;-91
2021/12/14 09:48:17;;;;;;;45.28;27.35;;;;;;;7.28;85.90;102712.88;4949229;28;20031;-85
2021/12/14 09:50:44;;;;;;;40.90;26.75;;;;;;;7.26;85.84;102705.06;4966529;28;20038;-89
2021/12/14 09:53:16;;;;;;;39.78;25.80;;;;;;;7.23;86.11;102699.84;4949057;28;20045;-87
2021/12/14 09:55:43;;;;;;;40.22;26.10;;;;;;;7.27;86.07;102698.19;4948597;28;20057;-91
2021/12/14 09:58:13;;;;;;;43.33;26.63;;;;;;;7.29;86.02;102693.91;4951228;28;20026;-93
2021/12/14 10:00:54;;;;;;;40.47;25.95;;;;;;;7.30;85.93;102695.66;4966574;28;20081;-92
2021/12/14 10:03:19;;;;;;;41.13;26.83;;;;;;;7.33;86.07;102694.81;4948990;28;20035;-87
2021/12/14 10:05:54;;;;;;;42.08;26.98;;;;;;;7.31;85.85;102697.41;4967011;28;20447;-86
2021/12/14 10:08:26;;;;;;;46.67;27.45;;;;;;;7.37;86.08;102696.63;4965365;28;20035;-88
2021/12/14 10:11:05;;;;;;;148.73;28.80;;;;;;;7.39;86.02;102693.22;4966323;28;20031;-91
2021/12/14 10:13:34;;;;;;;42.80;26.98;;;;;;;7.46;86.10;102696.78;4948880;28;20027;-86
2021/12/14 10:16:03;;;;;;;40.78;27.25;;;;;;;7.48;86.10;102702.00;4967139;28;20035;-85
2021/12/14 10:18:42;;;;;;;38.88;25.15;;;;;;;7.51;85.80;102699.47;4966717;28;20031;-87
2021/12/14 10:21:22;;;;;;;44.35;27.13;;;;;;;7.52;85.54;102704.66;4965463;28;20464;-87
2021/12/14 10:23:49;;;;;;;41.42;27.00;;;;;;;7.58;85.55;102701.28;4966035;28;20369;-85
2021/12/14 10:26:17;;;;;;;56.55;31.70;;;;;;;7.74;89.42;102698.09;4948757;28;20026;-89
2021/12/14 10:28:46;;;;;;;50.47;30.58;;;;;;;7.65;89.69;102694.50;4947443;28;20053;-89
2021/12/14 10:31:19;;;;;;;51.28;30.50;;;;;;;7.68;89.78;102705.81;4947382;28;20119;-93
2021/12/14 10:33:45;;;;;;;49.33;30.58;;;;;;;7.57;89.66;102694.38;4949646;28;20062;-88
2021/12/14 10:36:18;;;;;;;49.58;30.38;;;;;;;7.57;89.76;102705.63;4967971;28;20424;-90
2021/12/14 10:39:19;;;;;;;48.50;29.85;;;;;;;7.53;89.29;102703.81;4946584;28;20398;-89
2021/12/14 10:44:43;;;;;;;44.72;27.75;;;;;;;7.52;89.42;102712.44;4969272;28;20380;-94
2021/12/14 10:47:11;;;;;;;45.85;28.73;;;;;;;7.47;89.34;102708.88;4966126;28;20035;-92
2021/12/14 10:49:37;;;;;;;52.58;30.15;;;;;;;7.52;89.79;102712.44;4967530;28;20034;-91
2021/12/14 10:52:10;;;;;;;48.63;29.20;;;;;;;7.46;89.44;102703.69;4946415;28;20022;-94
2021/12/14 10:54:36;;;;;;;44.80;28.63;;;;;;;7.50;89.11;102708.06;4948245;28;20042;-93
2021/12/14 10:57:08;;;;;;;49.40;29.85;;;;;;;7.49;89.01;102701.16;4948350;28;20022;-93
2021/12/14 10:59:40;;;;;;;43.90;28.92;;;;;;;7.52;89.28;102701.19;4967499;28;20043;-90
2021/12/14 11:02:06;;;;;;;46.33;28.38;;;;;;;7.50;88.72;102693.41;4964357;28;20042;-92
2021/12/14 11:04:40;;;;;;;48.88;29.65;;;;;;;7.51;89.04;102689.09;4966563;28;20026;-89
2021/12/14 11:07:21;;;;;;;48.03;29.45;;;;;;;7.57;88.96;102694.38;4968426;28;20993;-89
2021/12/14 11:09:49;;;;;;;46.80;29.30;;;;;;;7.56;88.97;102685.75;4970340;28;20027;-90
2021/12/14 11:12:29;;;;;;;49.42;28.75;;;;;;;7.65;88.82;102686.72;4970716;28;20029;-91
2021/12/14 11:15:09;;;;;;;47.65;29.38;;;;;;;7.63;88.98;102689.31;4968516;28;20193;-90
2021/12/14 11:20:33;;;;;;;51.97;30.05;;;;;;;7.66;88.63;102689.34;4969425;28;20519;-91
2021/12/14 11:22:58;;;;;;;47.78;29.90;;;;;;;7.72;88.64;102685.97;4968570;28;20105;-92
2021/12/14 11:25:26;;;;;;;50.10;29.90;;;;;;;7.73;88.84;102679.97;4968512;28;20213;-88
2021/12/14 11:28:05;;;;;;;55.45;30.38;;;;;;;7.83;88.65;102683.56;4967553;28;20430;-91
2021/12/14 11:30:35;;;;;;;50.92;29.92;;;;;;;7.84;88.60;102678.41;4968531;28;20488;-92
2021/12/14 11:33:13;;;;;;;47.70;30.23;;;;;;;7.80;87.85;102665.38;4951535;28;20034;-94
2021/12/14 11:35:53;;;;;;;46.65;29.35;;;;;;;7.83;88.02;102666.28;4967605;28;20030;-93
2021/12/14 11:38:23;;;;;;;48.03;29.23;;;;;;;7.87;87.49;102667.19;4963714;28;20035;-90
2021/12/14 11:40:49;;;;;;;47.15;29.20;;;;;;;7.92;88.25;102662.09;4968605;28;20038;-89
2021/12/14 11:43:19;;;;;;;46.65;29.15;;;;;;;7.95;87.85;102667.31;4967661;28;20480;-92
2021/12/14 11:45:47;;;;;;;49.42;29.50;;;;;;;7.97;87.82;102656.13;4948716;28;20041;-89
2021/12/14 11:48:15;;;;;;;46.28;29.17;;;;;;;8.02;87.54;102657.09;4968397;28;20027;-92
2021/12/14 11:50:45;;;;;;;47.83;28.88;;;;;;;8.03;87.40;102663.13;4969105;28;20030;-90
2021/12/14 11:53:15;;;;;;;56.10;30.95;;;;;;;8.08;87.52;102668.38;4968732;28;20040;-92
2021/12/14 11:56:02;;;;;;;51.70;30.70;;;;;;;8.11;87.44;102666.72;4969518;28;20057;-91
2021/12/14 11:58:33;;;;;;;51.85;30.58;;;;;;;8.13;87.30;102664.13;4970348;28;20050;-93
2021/12/14 12:01:17;;;;;;;47.35;29.58;;;;;;;8.17;87.17;102668.50;4949373;28;20137;-90
2021/12/14 12:03:56;;;;;;;51.08;30.52;;;;;;;8.15;87.34;102662.44;4967255;28;20039;-88
2021/12/14 12:09:31;;;;;;;54.20;31.05;;;;;;;8.17;87.62;102658.13;4966905;28;20035;-94
2021/12/14 12:12:02;;;;;;;51.97;30.90;;;;;;;8.19;86.96;102669.41;4965025;28;20546;-92
2021/12/14 12:14:30;;;;;;;55.55;32.15;;;;;;;8.18;87.23;102673.72;4948719;28;20042;-90
2021/12/14 12:17:09;;;;;;;52.47;31.88;;;;;;;8.18;87.38;102670.25;4950434;28;20138;-88
2021/12/14 12:19:36;;;;;;;53.13;31.88;;;;;;;8.17;87.50;102663.31;4967675;28;20027;-88